createdAt,value
2022-09-03T00:01:25.469Z,19.23
2022-09-03T00:04:03.701Z,19.26
2022-09-03T00:06:39.987Z,19.27
2022-09-03T00:09:21.468Z,19.29
2022-09-03T00:12:00.775Z,19.25
2022-09-03T00:14:51.587Z,19.24
2022-09-03T00:17:22.952Z,19.26
2022-09-03T00:20:00.925Z,19.24
2022-09-03T00:22:33.791Z,19.25
2022-09-03T00:25:05.456Z,19.26
2022-09-03T00:27:36.446Z,19.25
2022-09-03T00:30:10.129Z,19.21
2022-09-03T00:32:47.340Z,19.20
2022-09-03T00:35:40.215Z,19.20
2022-09-03T00:38:06.966Z,19.16
2022-09-03T00:40:54.485Z,19.15
2022-09-03T00:43:53.071Z,19.18
2022-09-03T00:46:30.869Z,19.22
2022-09-03T00:49:22.235Z,19.18
2022-09-03T00:52:11.422Z,19.19
2022-09-03T00:54:46.856Z,19.20
2022-09-03T00:57:47.713Z,19.17
2022-09-03T01:00:21.923Z,19.12
2022-09-03T01:03:06.997Z,19.10
2022-09-03T01:05:52.314Z,19.08
2022-09-03T01:08:36.990Z,19.11
2022-09-03T01:11:43.203Z,19.12
2022-09-03T01:14:24.891Z,19.13
2022-09-03T01:17:05.414Z,19.12
2022-09-03T01:20:03.327Z,19.06
2022-09-03T01:22:39.123Z,19.04
2022-09-03T01:25:32.178Z,19.05
2022-09-03T01:28:48.939Z,19.02
2022-09-03T01:31:37.310Z,19.02
2022-09-03T01:34:16.214Z,19.00
2022-09-03T01:36:45.711Z,18.98
2022-09-03T01:39:25.007Z,18.96
2022-09-03T01:42:20.251Z,18.95
2022-09-03T01:45:32.377Z,18.90
2022-09-03T01:48:30.998Z,18.90
2022-09-03T01:51:11.528Z,18.91
2022-09-03T01:54:15.647Z,18.92
2022-09-03T01:57:35.746Z,18.95
2022-09-03T02:00:14.537Z,18.89
2022-09-03T02:02:43.527Z,18.84
2022-09-03T02:05:24.794Z,18.81
2022-09-03T02:08:01.125Z,18.82
2022-09-03T02:10:31.651Z,18.81
2022-09-03T02:13:21.499Z,18.77
2022-09-03T02:15:52.156Z,18.74
2022-09-03T02:18:23.160Z,18.68
2022-09-03T02:20:53.257Z,18.64
2022-09-03T02:23:25.526Z,18.68
2022-09-03T02:25:58.501Z,18.67
2022-09-03T02:28:27.287Z,18.66
2022-09-03T02:30:54.404Z,18.66
2022-09-03T02:33:21.158Z,18.62
2022-09-03T02:35:47.629Z,18.60
2022-09-03T02:38:18.609Z,18.61
2022-09-03T02:40:45.773Z,18.62
2022-09-03T02:43:18.771Z,18.59
2022-09-03T02:45:50.505Z,18.53
2022-09-03T02:48:22.721Z,18.50
2022-09-03T02:50:49.435Z,18.50
2022-09-03T02:53:16.734Z,18.44
2022-09-03T02:55:44.404Z,18.38
2022-09-03T02:58:11.350Z,18.33
2022-09-03T03:00:38.264Z,18.31
2022-09-03T03:03:06.356Z,18.31
2022-09-03T03:05:48.542Z,18.29
2022-09-03T03:08:16.995Z,18.29
2022-09-03T03:10:46.356Z,18.24
2022-09-03T03:13:13.520Z,18.24
2022-09-03T03:15:40.220Z,18.24
2022-09-03T03:18:07.633Z,18.24
2022-09-03T03:20:34.671Z,18.19
2022-09-03T03:23:05.628Z,18.15
2022-09-03T03:25:33.366Z,18.11
2022-09-03T03:28:00.365Z,18.08
2022-09-03T03:30:28.069Z,18.00
2022-09-03T03:32:55.107Z,17.96
2022-09-03T03:35:22.084Z,17.97
2022-09-03T03:37:48.620Z,17.97
2022-09-03T03:40:15.403Z,17.95
2022-09-03T03:42:42.568Z,17.95
2022-09-03T03:45:12.954Z,17.94
2022-09-03T03:47:39.389Z,17.92
2022-09-03T03:50:06.452Z,17.91
2022-09-03T03:52:33.008Z,17.89
2022-09-03T03:54:59.509Z,17.87
2022-09-03T03:57:26.052Z,17.87
2022-09-03T03:59:52.501Z,17.85
2022-09-03T04:02:19.037Z,17.82
2022-09-03T04:04:45.605Z,17.79
2022-09-03T04:07:12.056Z,17.77
2022-09-03T04:09:38.754Z,17.77
2022-09-03T04:12:08.564Z,17.78
2022-09-03T04:14:35.286Z,17.75
2022-09-03T04:17:03.090Z,17.73
2022-09-03T04:19:30.237Z,17.75
2022-09-03T04:21:57.104Z,17.71
2022-09-03T04:24:23.981Z,17.70
2022-09-03T04:26:50.657Z,17.70
2022-09-03T04:29:18.318Z,17.66
2022-09-03T04:32:04.889Z,17.62
2022-09-03T04:34:31.412Z,17.60
2022-09-03T04:37:00.775Z,17.58
2022-09-03T04:39:27.330Z,17.57
2022-09-03T04:41:53.880Z,17.56
2022-09-03T04:44:20.413Z,17.54
2022-09-03T04:46:48.165Z,17.55
2022-09-03T04:49:15.132Z,17.54
2022-09-03T04:51:41.913Z,17.50
2022-09-03T04:54:09.943Z,17.49
2022-09-03T04:56:38.566Z,17.49
2022-09-03T04:59:08.735Z,17.50
2022-09-03T05:01:38.032Z,17.49
2022-09-03T05:04:05.832Z,17.45
2022-09-03T05:06:33.311Z,17.42
2022-09-03T05:09:00.383Z,17.40
2022-09-03T05:11:28.137Z,17.41
2022-09-03T05:13:57.363Z,17.43
2022-09-03T05:16:25.390Z,17.43
2022-09-03T05:18:54.074Z,17.40
2022-09-03T05:21:22.321Z,17.41
2022-09-03T05:23:53.322Z,17.43
2022-09-03T05:26:25.959Z,17.43
2022-09-03T05:28:58.975Z,17.45
2022-09-03T05:31:28.517Z,17.48
2022-09-03T05:33:58.604Z,17.50
2022-09-03T05:36:27.428Z,17.56
2022-09-03T05:38:54.449Z,17.55
2022-09-03T05:41:21.999Z,17.59
2022-09-03T05:43:55.859Z,17.62
2022-09-03T05:46:28.026Z,17.64
2022-09-03T05:48:54.707Z,17.65
2022-09-03T05:51:21.278Z,17.64
2022-09-03T05:53:49.357Z,17.66
2022-09-03T05:56:25.312Z,17.66
2022-09-03T05:58:55.020Z,17.66
2022-09-03T06:01:30.933Z,17.67
2022-09-03T06:03:58.694Z,17.66
2022-09-03T06:06:27.649Z,17.69
2022-09-03T06:09:00.587Z,17.71
2022-09-03T06:11:30.952Z,17.75
2022-09-03T06:14:01.566Z,17.77
2022-09-03T06:16:31.700Z,17.81
2022-09-03T06:19:00.137Z,17.84
2022-09-03T06:21:27.785Z,17.84
2022-09-03T06:23:59.998Z,17.87
2022-09-03T06:26:28.848Z,17.89
2022-09-03T06:28:57.258Z,17.90
2022-09-03T06:31:24.794Z,17.91
2022-09-03T06:33:53.072Z,17.96
2022-09-03T06:36:20.424Z,18.03
2022-09-03T06:38:47.655Z,18.08
2022-09-03T06:41:21.145Z,18.17
2022-09-03T06:43:49.410Z,18.20
2022-09-03T06:46:59.058Z,18.23
2022-09-03T06:49:26.298Z,18.31
2022-09-03T06:51:55.518Z,18.34
2022-09-03T06:54:23.207Z,18.36
2022-09-03T06:56:49.832Z,18.39
2022-09-03T06:59:16.556Z,18.39
2022-09-03T07:01:46.311Z,18.41
2022-09-03T07:04:19.169Z,18.46
2022-09-03T07:06:46.640Z,18.47
2022-09-03T07:09:14.983Z,18.53
2022-09-03T07:11:47.425Z,18.54
2022-09-03T07:14:16.543Z,18.57
2022-09-03T07:16:43.806Z,18.61
2022-09-03T07:19:10.923Z,18.61
2022-09-03T07:21:37.806Z,18.62
2022-09-03T07:24:06.047Z,18.70
2022-09-03T07:26:44.700Z,18.76
2022-09-03T07:29:11.996Z,18.83
2022-09-03T07:31:40.440Z,18.86
2022-09-03T07:34:12.738Z,18.97
2022-09-03T07:36:48.843Z,19.05
2022-09-03T07:39:16.774Z,19.12
2022-09-03T07:41:46.026Z,19.13
2022-09-03T07:44:15.355Z,19.16
2022-09-03T07:46:43.509Z,19.20
2022-09-03T07:49:10.630Z,19.20
2022-09-03T07:51:38.573Z,19.19
2022-09-03T07:54:09.126Z,19.16
2022-09-03T07:56:36.593Z,19.15
2022-09-03T07:59:04.541Z,19.18
2022-09-03T08:01:32.910Z,19.20
2022-09-03T08:03:59.914Z,19.28
2022-09-03T08:06:28.153Z,19.27
2022-09-03T08:09:05.009Z,19.32
2022-09-03T08:11:35.051Z,19.37
2022-09-03T08:14:07.358Z,19.40
2022-09-03T08:16:37.144Z,19.38
2022-09-03T08:19:04.889Z,19.35
2022-09-03T08:21:31.944Z,19.34
2022-09-03T08:24:04.661Z,19.38
2022-09-03T08:26:36.568Z,19.41
2022-09-03T08:29:04.532Z,19.47
2022-09-03T08:31:32.388Z,19.52
2022-09-03T08:34:03.182Z,19.57
2022-09-03T08:36:31.183Z,19.53
2022-09-03T08:39:09.463Z,19.56
2022-09-03T08:41:47.492Z,19.61
2022-09-03T08:44:51.849Z,19.64
2022-09-03T08:48:10.235Z,19.66
2022-09-03T08:50:52.704Z,19.62
2022-09-03T08:53:28.284Z,19.67
2022-09-03T08:56:02.940Z,19.68
2022-09-03T08:58:33.918Z,19.74
2022-09-03T09:01:11.500Z,19.77
2022-09-03T09:03:42.335Z,19.81
2022-09-03T09:06:26.596Z,19.80
2022-09-03T09:08:56.404Z,19.83
2022-09-03T09:12:04.815Z,19.89
2022-09-03T09:14:53.116Z,19.96
2022-09-03T09:18:02.039Z,20.04
2022-09-03T09:20:37.606Z,20.14
2022-09-03T09:23:06.827Z,20.08
2022-09-03T09:25:39.380Z,20.08
2022-09-03T09:28:23.198Z,20.03
2022-09-03T09:30:54.030Z,20.01
2022-09-03T09:33:21.004Z,20.03
2022-09-03T09:35:48.077Z,20.00
2022-09-03T09:38:16.456Z,19.97
2022-09-03T09:40:45.631Z,19.96
2022-09-03T09:43:16.168Z,20.04
2022-09-03T09:45:48.525Z,20.16
2022-09-03T09:48:21.059Z,20.27
2022-09-03T09:50:47.710Z,20.21
2022-09-03T09:53:18.550Z,20.19
2022-09-03T09:55:52.036Z,20.23
2022-09-03T09:58:21.101Z,20.27
2022-09-03T10:01:15.946Z,20.40
2022-09-03T10:04:01.052Z,20.42
2022-09-03T10:06:50.131Z,20.46
2022-09-03T10:09:20.032Z,20.55
2022-09-03T10:12:04.299Z,20.54
2022-09-03T10:14:37.284Z,20.55
2022-09-03T10:17:22.100Z,20.58
2022-09-03T10:20:24.148Z,20.64
2022-09-03T10:22:56.622Z,20.68
2022-09-03T10:25:28.669Z,20.68
2022-09-03T10:28:01.977Z,20.67
2022-09-03T10:30:46.235Z,20.66
2022-09-03T10:33:22.870Z,20.65
2022-09-03T10:36:01.026Z,20.68
2022-09-03T10:38:36.570Z,20.69
2022-09-03T10:41:19.932Z,20.71
2022-09-03T10:44:10.727Z,20.71
2022-09-03T10:46:50.937Z,20.73
2022-09-03T10:49:46.104Z,20.79
2022-09-03T10:52:17.843Z,20.81
2022-09-03T10:55:09.202Z,20.82
2022-09-03T10:57:48.506Z,20.85
2022-09-03T11:00:18.180Z,20.86
2022-09-03T11:03:22.389Z,20.92
2022-09-03T11:05:51.897Z,20.95
2022-09-03T11:08:28.337Z,20.97
2022-09-03T11:11:00.226Z,20.99
2022-09-03T11:13:35.790Z,21.05
2022-09-03T11:16:11.977Z,21.08
2022-09-03T11:18:46.984Z,21.08
2022-09-03T11:21:16.716Z,21.10
2022-09-03T11:23:50.537Z,21.11
2022-09-03T11:26:26.218Z,21.12
2022-09-03T11:29:20.416Z,21.14
2022-09-03T11:32:07.859Z,21.18
2022-09-03T11:34:46.392Z,21.20
2022-09-03T11:37:30.869Z,21.16
2022-09-03T11:40:21.770Z,21.16
2022-09-03T11:42:48.679Z,21.20
2022-09-03T11:45:27.402Z,21.21
2022-09-03T11:47:54.634Z,21.25
2022-09-03T11:50:30.168Z,21.26
2022-09-03T11:53:25.235Z,21.33
2022-09-03T11:56:12.970Z,21.38
2022-09-03T11:58:42.893Z,21.38
2022-09-03T12:01:16.024Z,21.42
2022-09-03T12:04:04.835Z,21.42
2022-09-03T12:07:06.696Z,21.48
2022-09-03T12:09:39.353Z,21.55
2022-09-03T12:12:29.786Z,21.70
2022-09-03T12:15:10.686Z,21.86
2022-09-03T12:18:17.605Z,22.09
2022-09-03T12:20:45.010Z,22.27
2022-09-03T12:23:15.058Z,22.36
2022-09-03T12:25:48.471Z,22.49
2022-09-03T12:28:23.476Z,22.60
2022-09-03T12:30:53.336Z,22.81
2022-09-03T12:33:22.773Z,23.08
2022-09-03T12:36:00.710Z,23.34
2022-09-03T12:38:29.858Z,23.42
2022-09-03T12:43:51.807Z,23.67
2022-09-03T12:46:23.151Z,24.01
2022-09-03T12:52:06.607Z,24.76
2022-09-03T12:54:37.983Z,25.30
2022-09-03T12:57:05.148Z,25.49
2022-09-03T12:59:35.496Z,25.44
2022-09-03T13:02:12.862Z,25.57
2022-09-03T13:04:40.308Z,25.77
2022-09-03T13:07:29.140Z,26.04
2022-09-03T13:10:04.278Z,26.18
2022-09-03T13:12:34.617Z,26.30
2022-09-03T13:15:08.259Z,26.17
2022-09-03T13:17:59.002Z,26.30
2022-09-03T13:20:44.268Z,26.20
2022-09-03T13:23:49.943Z,26.19
2022-09-03T13:26:53.767Z,26.20
2022-09-03T13:29:52.656Z,26.08
2022-09-03T13:32:30.712Z,25.98
2022-09-03T13:35:19.893Z,25.86
2022-09-03T13:37:55.170Z,25.60
2022-09-03T13:40:49.816Z,25.46
2022-09-03T13:43:42.473Z,25.39
2022-09-03T13:46:30.040Z,25.15
2022-09-03T13:49:37.922Z,24.95
2022-09-03T13:52:08.701Z,24.77
2022-09-03T13:54:49.006Z,24.73
2022-09-03T13:57:25.015Z,24.65
2022-09-03T14:00:01.467Z,24.43
2022-09-03T14:02:46.945Z,24.28
2022-09-03T14:05:25.095Z,24.19
2022-09-03T14:08:14.212Z,24.14
2022-09-03T14:10:56.302Z,24.16
2022-09-03T14:13:32.176Z,24.36
2022-09-03T14:16:08.834Z,24.58
2022-09-03T14:18:51.802Z,24.74
2022-09-03T14:21:24.776Z,24.72
2022-09-03T14:24:12.138Z,24.70
2022-09-03T14:26:50.487Z,24.65
2022-09-03T14:29:18.337Z,24.58
2022-09-03T14:32:22.510Z,24.42
2022-09-03T14:35:07.754Z,24.36
2022-09-03T14:37:43.483Z,24.30
2022-09-03T14:40:27.960Z,24.25
2022-09-03T14:43:06.605Z,24.24
2022-09-03T14:46:03.612Z,24.12
2022-09-03T14:48:54.563Z,24.14
2022-09-03T14:51:35.421Z,24.15
2022-09-03T14:54:18.989Z,24.28
2022-09-03T14:56:48.373Z,24.17
2022-09-03T14:59:34.695Z,24.06
2022-09-03T15:02:33.765Z,24.01
2022-09-03T15:05:32.806Z,24.00
2022-09-03T15:08:02.447Z,24.07
2022-09-03T15:10:36.392Z,24.07
2022-09-03T15:13:15.001Z,24.19
2022-09-03T15:15:52.359Z,24.24
2022-09-03T15:18:31.054Z,24.19
2022-09-03T15:21:15.306Z,24.20
2022-09-03T15:23:52.182Z,24.28
2022-09-03T15:26:40.049Z,24.27
2022-09-03T15:29:26.392Z,24.26
2022-09-03T15:32:00.654Z,24.19
2022-09-03T15:34:50.754Z,24.25
2022-09-03T15:37:26.398Z,24.27
2022-09-03T15:40:23.167Z,24.27
2022-09-03T15:42:55.398Z,24.28
2022-09-03T15:45:35.029Z,24.32
2022-09-03T15:48:21.539Z,24.21
2022-09-03T15:51:11.946Z,24.16
2022-09-03T15:53:50.959Z,24.12
2022-09-03T15:56:43.920Z,24.18
2022-09-03T15:59:16.254Z,24.36
2022-09-03T16:01:54.082Z,24.43
2022-09-03T16:04:48.942Z,24.51
2022-09-03T16:07:39.581Z,24.62
2022-09-03T16:10:25.838Z,24.73
2022-09-03T16:13:05.800Z,24.76
2022-09-03T16:15:45.447Z,24.85
2022-09-03T16:18:25.900Z,24.92
2022-09-03T16:21:57.354Z,24.98
2022-09-03T16:24:29.319Z,25.08
2022-09-03T16:27:08.472Z,25.11
2022-09-03T16:29:38.340Z,25.02
2022-09-03T16:32:34.579Z,25.05
2022-09-03T16:35:10.314Z,25.19
2022-09-03T16:38:25.093Z,25.24
2022-09-03T16:41:00.701Z,25.16
2022-09-03T16:44:04.112Z,25.04
2022-09-03T16:46:36.836Z,24.94
2022-09-03T16:49:23.275Z,24.87
2022-09-03T16:51:52.792Z,24.79
2022-09-03T16:54:27.719Z,24.75
2022-09-03T16:57:25.018Z,24.71
2022-09-03T17:00:03.207Z,24.67
2022-09-03T17:02:41.200Z,24.64
2022-09-03T17:05:23.622Z,24.62
2022-09-03T17:08:11.922Z,24.58
2022-09-03T17:10:41.540Z,24.55
2022-09-03T17:13:23.216Z,24.49
2022-09-03T17:16:08.036Z,24.46
2022-09-03T17:18:59.073Z,24.42
2022-09-03T17:21:48.823Z,24.42
2022-09-03T17:24:31.309Z,24.39
2022-09-03T17:27:12.787Z,24.38
2022-09-03T17:30:00.646Z,24.37
2022-09-03T17:33:06.408Z,24.33
2022-09-03T17:35:50.673Z,24.28
2022-09-03T17:38:38.968Z,24.24
2022-09-03T17:41:24.782Z,24.16
2022-09-03T17:44:02.463Z,24.13
2022-09-03T17:46:40.920Z,24.07
2022-09-03T17:49:08.495Z,24.01
2022-09-03T17:51:39.789Z,23.96
2022-09-03T17:54:08.615Z,23.87
2022-09-03T17:56:51.046Z,23.78
2022-09-03T17:59:50.963Z,23.68
2022-09-03T18:02:43.429Z,23.57
2022-09-03T18:05:27.466Z,23.42
2022-09-03T18:08:35.134Z,23.31
2022-09-03T18:11:38.650Z,23.20
2022-09-03T18:14:24.315Z,23.08
2022-09-03T18:17:05.459Z,22.96
2022-09-03T18:20:02.651Z,22.93
2022-09-03T18:22:56.983Z,22.89
2022-09-03T18:25:44.857Z,22.82
2022-09-03T18:28:34.789Z,22.76
2022-09-03T18:31:19.652Z,22.60
2022-09-03T18:34:04.703Z,22.62
2022-09-03T18:36:50.763Z,22.49
2022-09-03T18:39:43.359Z,22.44
2022-09-03T18:43:01.152Z,22.50
2022-09-03T18:47:22.484Z,22.41
2022-09-03T18:49:29.861Z,22.32
2022-09-03T18:52:23.806Z,22.16
2022-09-03T18:55:44.734Z,22.08
2022-09-03T18:58:51.776Z,22.01
2022-09-03T19:01:59.626Z,21.94
2022-09-03T19:05:22.511Z,21.82
2022-09-03T19:08:26.299Z,21.73
2022-09-03T19:11:22.712Z,21.79
2022-09-03T19:14:07.604Z,21.80
2022-09-03T19:17:20.063Z,21.76
2022-09-03T19:20:32.081Z,21.68
2022-09-03T19:23:16.958Z,21.66
2022-09-03T19:26:02.760Z,21.66
2022-09-03T19:28:56.196Z,21.70
2022-09-03T19:31:41.141Z,21.73
2022-09-03T19:34:48.263Z,21.75
2022-09-03T19:38:02.380Z,21.73
2022-09-03T19:41:24.180Z,21.71
2022-09-03T19:44:18.368Z,21.69
2022-09-03T19:47:12.795Z,21.59
2022-09-03T19:50:22.882Z,21.55
2022-09-03T19:53:22.215Z,21.51
2022-09-03T19:56:12.933Z,21.45
2022-09-03T19:59:26.644Z,21.39
2022-09-03T20:02:12.066Z,21.37
2022-09-03T20:05:02.986Z,21.40
2022-09-03T20:07:48.347Z,21.36
2022-09-03T20:10:23.473Z,21.35
2022-09-03T20:13:02.316Z,21.30
2022-09-03T20:16:07.330Z,21.31
2022-09-03T20:19:32.999Z,21.15
2022-09-03T20:22:03.057Z,21.10
2022-09-03T20:24:51.011Z,21.11
2022-09-03T20:27:32.846Z,21.04
2022-09-03T20:30:05.524Z,20.96
2022-09-03T20:32:41.071Z,20.93
2022-09-03T20:35:29.034Z,20.92
2022-09-03T20:38:23.653Z,20.95
2022-09-03T20:40:53.072Z,20.93
2022-09-03T20:43:57.152Z,20.91
2022-09-03T20:46:55.840Z,20.86
2022-09-03T20:49:55.193Z,20.85
2022-09-03T20:52:36.861Z,20.86
2022-09-03T20:55:18.596Z,20.85
2022-09-03T20:58:13.246Z,20.86
2022-09-03T21:01:07.249Z,20.88
2022-09-03T21:03:42.841Z,20.82
2022-09-03T21:06:24.614Z,20.76
2022-09-03T21:09:02.544Z,20.72
2022-09-03T21:11:53.523Z,20.66
2022-09-03T21:14:38.184Z,20.71
2022-09-03T21:17:23.370Z,20.68
2022-09-03T21:20:15.652Z,20.65
2022-09-03T21:22:57.356Z,20.64
2022-09-03T21:25:48.773Z,20.59
2022-09-03T21:28:32.115Z,20.61
2022-09-03T21:31:02.158Z,20.54
2022-09-03T21:33:33.172Z,20.54
2022-09-03T21:36:07.356Z,20.53
2022-09-03T21:38:37.343Z,20.49
2022-09-03T21:41:15.492Z,20.40
2022-09-03T21:43:48.742Z,20.37
2022-09-03T21:46:22.120Z,20.39
2022-09-03T21:48:57.328Z,20.33
2022-09-03T21:51:36.893Z,20.35
2022-09-03T21:54:33.681Z,20.36
2022-09-03T21:57:22.342Z,20.29
2022-09-03T22:00:18.003Z,20.28
2022-09-03T22:02:49.401Z,20.26
2022-09-03T22:05:18.447Z,20.23
2022-09-03T22:07:54.300Z,20.24
2022-09-03T22:10:24.384Z,20.17
2022-09-03T22:13:15.439Z,20.16
2022-09-03T22:15:48.127Z,20.13
2022-09-03T22:18:30.291Z,20.08
2022-09-03T22:20:59.756Z,20.00
2022-09-03T22:23:45.434Z,20.00
2022-09-03T22:26:40.510Z,19.92
2022-09-03T22:29:20.951Z,19.84
2022-09-03T22:32:03.145Z,19.85
2022-09-03T22:35:23.932Z,19.88
2022-09-03T22:38:24.633Z,19.82
2022-09-03T22:41:01.431Z,19.78
2022-09-03T22:43:48.243Z,19.79
2022-09-03T22:46:17.305Z,19.67
2022-09-03T22:49:09.175Z,19.68
2022-09-03T22:52:01.754Z,19.60
2022-09-03T22:54:46.504Z,19.55
2022-09-03T22:57:15.821Z,19.49
2022-09-03T22:59:57.272Z,19.38
2022-09-03T23:02:27.568Z,19.40
2022-09-03T23:05:03.447Z,19.24
2022-09-03T23:07:52.595Z,19.17
2022-09-03T23:10:32.520Z,19.20
2022-09-03T23:13:16.529Z,19.32
2022-09-03T23:15:46.148Z,19.37
2022-09-03T23:18:17.729Z,19.40
2022-09-03T23:20:53.187Z,19.40
2022-09-03T23:23:24.476Z,19.41
2022-09-03T23:26:16.019Z,19.41
2022-09-03T23:28:49.453Z,19.38
2022-09-03T23:31:25.348Z,19.36
2022-09-03T23:33:54.684Z,19.34
2022-09-03T23:36:55.019Z,19.29
2022-09-03T23:39:39.849Z,19.27
2022-09-03T23:42:30.667Z,19.26
2022-09-03T23:45:16.267Z,19.24
2022-09-03T23:47:50.343Z,19.16
2022-09-03T23:50:29.041Z,19.10
2022-09-03T23:53:31.626Z,19.10
2022-09-03T23:56:16.951Z,19.04
2022-09-03T23:59:01.602Z,18.99
